Time;durP1;ratioP1;P1;durP2;ratioP2;P2;SDS_P1;SDS_P2;PMS_P1;PMS_P2;Temp;Humidity;BMP_temperature;BMP_pressure;BME280_temperature;BME280_humidity;BME280_pressure;Samples;Min_cycle;Max_cycle;Signal;HPM_P1;HPM_P2
2023/04/22 04:34:03;;;;;;;10.02;5.95;;;14.10;70.50;;;;;;5851782;23;20035;-73
2023/04/22 04:36:31;;;;;;;7.93;5.07;;;14.10;71.00;;;;;;4950520;29;20063;-73
2023/04/22 04:38:57;;;;;;;7.50;4.47;;;14.10;71.20;;;;;;4955583;29;20366;-74
2023/04/22 04:41:27;;;;;;;6.30;4.35;;;14.20;71.40;;;;;;4957285;29;20055;-75
2023/04/22 04:43:53;;;;;;;13.73;3.97;;;14.40;71.60;;;;;;4957638;29;20035;-74
2023/04/22 04:46:19;;;;;;;10.32;4.20;;;14.50;71.90;;;;;;4957076;29;20047;-73
2023/04/22 04:48:45;;;;;;;20.02;5.20;;;14.70;72.00;;;;;;4957008;29;20102;-74
2023/04/22 04:51:11;;;;;;;21.52;4.30;;;14.90;72.10;;;;;;4956839;29;20466;-73
2023/04/22 04:53:39;;;;;;;13.90;3.83;;;14.90;72.20;;;;;;4939313;28;20521;-73
2023/04/22 04:56:05;;;;;;;17.40;4.88;;;15.10;72.30;;;;;;4956781;29;20374;-72
2023/04/22 04:58:31;;;;;;;16.77;4.05;;;15.20;72.30;;;;;;4957561;29;20043;-72
2023/04/22 05:00:56;;;;;;;16.65;4.10;;;15.20;72.60;;;;;;4957427;29;20051;-72
2023/04/22 05:03:22;;;;;;;28.52;4.43;;;15.30;72.70;;;;;;4957133;29;20051;-74
2023/04/22 05:05:48;;;;;;;15.70;5.18;;;15.30;72.90;;;;;;4956948;29;20043;-73
2023/04/22 05:08:17;;;;;;;14.07;3.97;;;15.40;72.90;;;;;;4957158;29;20043;-73
2023/04/22 05:10:43;;;;;;;19.35;4.68;;;15.40;73.00;;;;;;4947818;29;20390;-78
2023/04/22 05:13:10;;;;;;;20.70;4.82;;;15.40;73.00;;;;;;4955729;28;20035;-72
2023/04/22 05:15:36;;;;;;;27.60;4.45;;;15.40;73.30;;;;;;4954493;28;20374;-74
2023/04/22 05:18:02;;;;;;;22.45;4.63;;;15.50;73.20;;;;;;4973095;28;20154;-75
2023/04/22 05:20:29;;;;;;;24.77;5.15;;;15.50;73.10;;;;;;4968762;28;20054;-75
2023/04/22 05:22:55;;;;;;;28.02;5.90;;;15.50;73.20;;;;;;4964163;28;20130;-74
2023/04/22 05:25:21;;;;;;;30.00;5.80;;;15.50;73.80;;;;;;4962603;28;20130;-73
2023/04/22 05:27:47;;;;;;;37.05;5.80;;;15.50;74.60;;;;;;4962849;28;20051;-73
2023/04/22 05:30:13;;;;;;;30.52;5.88;;;15.60;74.50;;;;;;4972568;28;20130;-74
2023/04/22 05:32:39;;;;;;;25.90;6.15;;;15.60;74.50;;;;;;4962908;28;20054;-74
2023/04/22 05:35:05;;;;;;;33.55;5.70;;;15.60;74.40;;;;;;4975557;28;20362;-73
2023/04/22 05:37:31;;;;;;;32.65;5.75;;;15.60;74.50;;;;;;4959376;28;20055;-74
2023/04/22 05:39:57;;;;;;;33.92;7.07;;;15.60;74.60;;;;;;4956796;29;20051;-74
2023/04/22 05:42:23;;;;;;;30.35;5.38;;;15.60;74.60;;;;;;4956396;29;20369;-75
2023/04/22 05:44:50;;;;;;;30.80;5.60;;;15.70;74.60;;;;;;4939474;29;20435;-75
2023/04/22 05:47:16;;;;;;;31.73;6.60;;;15.70;74.60;;;;;;4956689;29;20115;-75
2023/04/22 05:49:42;;;;;;;35.53;7.20;;;15.70;74.50;;;;;;4940056;29;20438;-76
2023/04/22 05:52:08;;;;;;;43.63;6.97;;;15.70;74.50;;;;;;4937448;29;20048;-77
2023/04/22 05:54:34;;;;;;;29.52;7.82;;;15.70;74.30;;;;;;4928482;29;20048;-79
2023/04/22 05:57:01;;;;;;;29.73;6.60;;;15.70;74.80;;;;;;4953008;29;20471;-78
2023/04/22 05:59:27;;;;;;;39.75;7.10;;;15.80;74.20;;;;;;4937417;29;20478;-77
2023/04/22 06:01:53;;;;;;;35.75;6.70;;;15.80;74.20;;;;;;4937698;29;20059;-79
2023/04/22 06:04:19;;;;;;;45.45;8.23;;;15.90;74.10;;;;;;4946166;29;20094;-77
2023/04/22 06:06:46;;;;;;;34.35;6.43;;;16.00;73.90;;;;;;4959046;28;20489;-77
2023/04/22 06:09:12;;;;;;;35.08;6.88;;;16.10;73.60;;;;;;4960058;29;20047;-75
2023/04/22 06:11:41;;;;;;;45.30;7.22;;;16.20;73.40;;;;;;4958450;29;20059;-78
2023/04/22 06:14:07;;;;;;;48.35;7.95;;;16.20;73.20;;;;;;4959932;29;20031;-82
2023/04/22 06:16:33;;;;;;;36.08;6.38;;;16.30;73.00;;;;;;4942866;29;20047;-82
2023/04/22 06:18:59;;;;;;;45.08;7.95;;;16.30;72.60;;;;;;4926992;29;20039;-81
2023/04/22 06:21:26;;;;;;;43.75;7.28;;;16.40;72.30;;;;;;4927180;29;20039;-81
2023/04/22 06:23:52;;;;;;;42.22;6.65;;;16.50;72.20;;;;;;4923015;29;20039;-77
2023/04/22 06:26:18;;;;;;;36.72;6.40;;;16.50;72.10;;;;;;4924985;29;20047;-80
2023/04/22 06:29:04;;;;;;;37.38;6.68;;;16.50;71.90;;;;;;4960225;29;20106;-82
2023/04/22 06:32:05;;;;;;;29.20;5.72;;;16.50;71.80;;;;;;4923458;29;20048;-81
2023/04/22 06:34:34;;;;;;;35.17;6.25;;;16.50;71.50;;;;;;4945463;29;20055;-79
2023/04/22 06:37:00;;;;;;;34.83;6.50;;;16.50;71.60;;;;;;4959439;29;20054;-82
2023/04/22 06:39:28;;;;;;;20.52;4.75;;;16.50;71.50;;;;;;4926889;29;20113;-81
2023/04/22 06:42:04;;;;;;;30.48;5.05;;;16.50;71.40;;;;;;4927890;29;20354;-81
2023/04/22 06:44:31;;;;;;;25.15;5.15;;;16.50;71.40;;;;;;4926225;29;20047;-80
2023/04/22 06:54:57;;;;;;;;;;;16.50;70.20;;;;;;4894093;29;20053;-82
2023/04/22 06:57:31;;;;;;;15.38;7.47;;;16.40;70.90;;;;;;4884530;29;20055;-82
2023/04/22 07:03:40;;;;;;;18.42;6.85;;;16.30;70.50;;;;;;4946215;29;20050;-77
2023/04/22 07:06:06;;;;;;;24.88;6.97;;;16.30;70.60;;;;;;4953577;29;20039;-81
2023/04/22 07:08:32;;;;;;;25.67;7.63;;;16.30;70.80;;;;;;4923062;29;20035;-80
2023/04/22 07:11:03;;;;;;;26.75;7.57;;;16.30;71.00;;;;;;4946321;29;20054;-80
2023/04/22 07:17:13;;;;;;;20.25;6.50;;;16.30;71.30;;;;;;4938863;29;20042;-80
2023/04/22 08:15:30;;;;;;;7.28;3.95;;;16.10;70.50;;;;;;4928743;29;20280;-81
2023/04/22 08:18:15;;;;;;;8.30;4.75;;;16.10;70.50;;;;;;4957448;29;20159;-82
2023/04/22 08:20:41;;;;;;;6.95;4.07;;;16.10;70.50;;;;;;4937721;29;20055;-83
2023/04/22 08:23:07;;;;;;;5.68;3.92;;;16.10;70.40;;;;;;4924865;29;20070;-83
2023/04/22 08:25:34;;;;;;;6.00;4.13;;;16.10;70.30;;;;;;4940505;29;20039;-83
2023/04/22 08:28:00;;;;;;;7.75;4.53;;;16.10;70.40;;;;;;4925025;29;20043;-82
2023/04/22 08:30:26;;;;;;;7.63;4.65;;;16.10;70.40;;;;;;4924013;29;20109;-82
2023/04/22 08:32:52;;;;;;;5.43;4.05;;;16.10;70.30;;;;;;4924442;29;20045;-83
2023/04/22 08:35:18;;;;;;;8.57;4.38;;;16.10;70.30;;;;;;4924660;29;20039;-75
2023/04/22 08:37:46;;;;;;;5.88;4.22;;;16.10;70.20;;;;;;4957377;29;20351;-79
2023/04/22 08:40:12;;;;;;;10.57;5.25;;;16.10;70.10;;;;;;4957667;29;20040;-84
2023/04/22 08:42:39;;;;;;;9.57;5.32;;;16.10;70.50;;;;;;4941229;29;20043;-80
2023/04/22 08:45:05;;;;;;;11.75;5.22;;;16.10;70.70;;;;;;4940722;29;20043;-79
2023/04/22 08:47:32;;;;;;;13.70;6.07;;;16.10;70.90;;;;;;4957271;29;20043;-79
2023/04/22 08:50:01;;;;;;;15.05;6.45;;;16.10;71.70;;;;;;4924713;29;20042;-78
2023/04/22 08:52:30;;;;;;;23.23;7.30;;;16.10;71.10;;;;;;4957358;29;20047;-82
2023/04/22 08:54:55;;;;;;;28.33;7.60;;;16.20;71.20;;;;;;4924092;29;20125;-80
2023/04/22 08:57:22;;;;;;;15.80;7.82;;;16.20;71.30;;;;;;4953502;29;20407;-84
2023/04/22 08:59:54;;;;;;;19.65;8.30;;;16.20;71.40;;;;;;4940105;29;20229;-82
2023/04/22 09:02:20;;;;;;;28.13;9.07;;;16.20;71.50;;;;;;4924346;29;20087;-76
2023/04/22 09:04:55;;;;;;;19.95;8.60;;;16.20;71.60;;;;;;4957109;29;20401;-76
2023/04/22 09:07:26;;;;;;;28.27;9.25;;;16.20;71.50;;;;;;4957047;29;20047;-75
2023/04/22 09:09:54;;;;;;;17.58;9.35;;;16.20;71.40;;;;;;4956817;28;20058;-75
2023/04/22 09:12:20;;;;;;;26.30;10.50;;;16.20;71.40;;;;;;4956714;29;20039;-76
2023/04/22 09:14:46;;;;;;;28.95;10.93;;;16.20;71.30;;;;;;4957152;29;20077;-76
2023/04/22 09:17:32;;;;;;;32.13;9.68;;;16.20;71.30;;;;;;4956488;29;20059;-77
2023/04/22 09:20:00;;;;;;;26.65;10.10;;;16.20;71.40;;;;;;4957116;29;20046;-75
2023/04/22 09:22:27;;;;;;;33.30;10.50;;;16.20;71.40;;;;;;4957228;29;20062;-74
2023/04/22 09:24:54;;;;;;;21.83;8.35;;;16.20;71.50;;;;;;4956777;29;20113;-74
2023/04/22 09:27:23;;;;;;;36.65;10.32;;;16.30;71.40;;;;;;4953619;29;20470;-75
2023/04/22 09:29:52;;;;;;;24.58;9.88;;;16.30;71.30;;;;;;4956516;29;20055;-75
2023/04/22 09:32:25;;;;;;;19.38;9.05;;;16.30;71.20;;;;;;4956763;29;20057;-81
2023/04/22 09:34:53;;;;;;;29.13;10.05;;;16.30;71.20;;;;;;4956445;29;20362;-77
2023/04/22 09:37:25;;;;;;;17.00;8.65;;;16.30;71.30;;;;;;4971746;28;20399;-77
2023/04/22 09:39:51;;;;;;;20.23;8.10;;;16.30;71.50;;;;;;4956953;29;20043;-77
2023/04/22 09:42:18;;;;;;;26.77;8.68;;;16.30;71.40;;;;;;4960051;29;20039;-77
2023/04/22 09:44:46;;;;;;;21.17;8.00;;;16.30;71.30;;;;;;4960832;29;20525;-78
2023/04/22 09:47:12;;;;;;;33.13;8.80;;;16.30;71.10;;;;;;4960289;29;20046;-79
2023/04/22 09:49:39;;;;;;;25.50;7.80;;;16.30;71.10;;;;;;4960696;29;20126;-78
2023/04/22 09:52:05;;;;;;;18.27;7.55;;;16.30;71.10;;;;;;4976243;28;20048;-78
2023/04/22 09:54:31;;;;;;;22.70;7.90;;;16.30;71.00;;;;;;4960082;29;20050;-80
2023/04/22 09:56:57;;;;;;;19.20;7.57;;;16.30;71.00;;;;;;4960576;29;20403;-80
2023/04/22 09:59:26;;;;;;;18.90;6.47;;;16.30;70.90;;;;;;4960739;29;20134;-80
2023/04/22 10:01:55;;;;;;;23.25;7.55;;;16.30;71.00;;;;;;4943507;29;20063;-78
2023/04/22 10:04:22;;;;;;;24.88;9.27;;;16.30;71.20;;;;;;4960245;29;20044;-76
2023/04/22 10:06:48;;;;;;;23.40;9.88;;;16.30;71.40;;;;;;4960272;29;20047;-78
2023/04/22 10:09:16;;;;;;;19.67;7.85;;;16.30;71.30;;;;;;4975852;28;20059;-78
2023/04/22 10:11:42;;;;;;;22.00;9.23;;;16.30;71.40;;;;;;4960206;29;20062;-77
2023/04/22 10:14:13;;;;;;;16.95;7.75;;;16.30;71.30;;;;;;4942846;29;20047;-78
2023/04/22 10:16:41;;;;;;;20.10;7.15;;;16.40;71.20;;;;;;4959810;29;20071;-77
2023/04/22 10:19:09;;;;;;;21.25;8.25;;;16.40;71.20;;;;;;4959749;29;20074;-78
2023/04/22 10:21:36;;;;;;;22.15;8.20;;;16.40;71.10;;;;;;4959831;29;20051;-78
2023/04/22 10:24:04;;;;;;;17.98;7.50;;;16.40;71.00;;;;;;4959683;29;20058;-78
2023/04/22 10:26:52;;;;;;;16.50;7.00;;;16.40;71.00;;;;;;4959494;29;20055;-78
2023/04/22 10:29:20;;;;;;;14.55;7.00;;;16.40;71.00;;;;;;4942824;29;20141;-78
2023/04/22 10:32:05;;;;;;;15.68;7.38;;;16.40;70.90;;;;;;4959780;29;20047;-77
2023/04/22 10:34:31;;;;;;;12.35;6.45;;;16.40;70.90;;;;;;4959783;29;20165;-77
2023/04/22 10:37:00;;;;;;;11.05;5.93;;;16.40;70.90;;;;;;4960152;29;20400;-78
2023/04/22 10:39:27;;;;;;;13.50;6.10;;;16.40;70.90;;;;;;4959194;29;20059;-77
2023/04/22 10:41:57;;;;;;;15.23;5.65;;;16.40;70.90;;;;;;4943296;29;20081;-77
2023/04/22 10:44:27;;;;;;;9.80;5.32;;;16.40;70.80;;;;;;4960018;29;20054;-78
2023/04/22 10:46:57;;;;;;;16.45;6.57;;;16.40;70.80;;;;;;4959602;29;20110;-77
2023/04/22 10:49:25;;;;;;;12.60;5.70;;;16.40;70.80;;;;;;4959412;29;20414;-78
2023/04/22 10:51:59;;;;;;;13.70;5.18;;;16.40;70.80;;;;;;4958731;28;20122;-78
2023/04/22 10:54:28;;;;;;;10.52;5.22;;;16.40;70.90;;;;;;4959017;29;20043;-78
2023/04/22 10:57:08;;;;;;;12.98;5.40;;;16.40;70.80;;;;;;4959246;29;20082;-79
2023/04/22 10:59:44;;;;;;;11.63;5.38;;;16.40;70.90;;;;;;4942352;29;20109;-78
2023/04/22 11:02:13;;;;;;;10.68;4.65;;;16.40;70.80;;;;;;4959057;29;20043;-78
2023/04/22 11:04:39;;;;;;;8.27;5.05;;;16.40;70.80;;;;;;4959554;29;20055;-79
2023/04/22 11:07:21;;;;;;;9.52;4.95;;;16.40;70.80;;;;;;4959513;29;20043;-78
2023/04/22 11:10:07;;;;;;;9.88;4.32;;;16.40;70.80;;;;;;4958968;29;20047;-79
2023/04/22 11:12:38;;;;;;;9.63;4.15;;;16.40;70.80;;;;;;4958810;29;20043;-79
2023/04/22 11:15:08;;;;;;;11.98;3.95;;;16.40;70.80;;;;;;4958865;29;20114;-79
2023/04/22 11:17:35;;;;;;;10.90;4.60;;;16.40;70.70;;;;;;4973690;28;20105;-79
2023/04/22 11:20:03;;;;;;;7.45;3.47;;;16.40;70.70;;;;;;4959175;29;20050;-79
2023/04/22 11:22:38;;;;;;;8.05;4.28;;;16.50;70.70;;;;;;4958708;29;20117;-79
2023/04/22 11:25:05;;;;;;;8.15;4.00;;;16.50;70.70;;;;;;4941768;29;20049;-79
2023/04/22 11:27:31;;;;;;;5.80;3.70;;;16.50;70.70;;;;;;4958665;29;20086;-79
2023/04/22 11:30:09;;;;;;;7.25;3.88;;;16.50;70.70;;;;;;4974371;28;20419;-79
2023/04/22 11:32:36;;;;;;;6.50;4.07;;;16.50;70.70;;;;;;4957171;29;20059;-79
2023/04/22 11:35:04;;;;;;;6.63;3.55;;;16.50;70.70;;;;;;4958491;29;20076;-80
2023/04/22 11:37:29;;;;;;;7.20;3.67;;;16.50;70.60;;;;;;4974426;28;20070;-80
2023/04/22 11:39:59;;;;;;;6.00;3.70;;;16.40;70.60;;;;;;4958177;29;20043;-79
2023/04/22 11:42:25;;;;;;;6.72;3.60;;;16.50;70.60;;;;;;4941665;29;20055;-80
2023/04/22 11:44:50;;;;;;;6.07;3.42;;;16.50;70.60;;;;;;4958311;29;20051;-79
2023/04/22 11:47:18;;;;;;;7.30;3.60;;;16.50;70.60;;;;;;4958269;29;20061;-79
2023/04/22 11:50:05;;;;;;;6.45;2.90;;;16.50;70.60;;;;;;4958396;29;20126;-79
2023/04/22 11:52:51;;;;;;;7.45;3.83;;;16.50;70.60;;;;;;4958062;29;20426;-79
2023/04/22 11:55:26;;;;;;;7.20;3.30;;;16.50;70.50;;;;;;4958700;29;20122;-79
2023/04/22 11:57:56;;;;;;;8.38;2.97;;;16.50;70.50;;;;;;4941205;29;20051;-81
2023/04/22 12:00:26;;;;;;;8.07;3.10;;;16.50;70.50;;;;;;4958135;29;20051;-80
2023/04/22 12:02:57;;;;;;;4.32;2.60;;;16.50;70.40;;;;;;4973372;28;20142;-79
2023/04/22 12:05:52;;;;;;;7.57;2.88;;;16.50;70.40;;;;;;4958338;28;20151;-80
2023/04/22 12:08:20;;;;;;;4.43;2.70;;;16.50;70.40;;;;;;4941693;29;20457;-80
2023/04/22 12:10:51;;;;;;;5.30;3.03;;;16.50;70.40;;;;;;4973481;28;20043;-79
2023/04/22 12:13:25;;;;;;;4.47;2.80;;;16.50;70.40;;;;;;4957624;29;20051;-81
2023/04/22 12:15:58;;;;;;;;;;;16.50;70.50;;;;;;4958331;29;20113;-82
2023/04/22 12:18:34;;;;;;;5.03;2.80;;;16.50;70.50;;;;;;4957750;29;19989;-81
2023/04/22 12:21:03;;;;;;;5.15;2.83;;;16.50;70.50;;;;;;4925257;29;20082;-80
2023/04/22 12:23:30;;;;;;;4.63;2.65;;;16.50;70.40;;;;;;4957591;29;20061;-81
2023/04/22 12:25:56;;;;;;;5.30;2.97;;;16.50;70.40;;;;;;4940694;29;20075;-81
2023/04/22 12:28:22;;;;;;;5.25;2.95;;;16.50;70.40;;;;;;4940615;29;20078;-81
2023/04/22 12:30:48;;;;;;;4.55;2.65;;;16.50;70.40;;;;;;4973117;28;20051;-81
2023/04/22 12:33:14;;;;;;;4.30;2.65;;;16.50;70.40;;;;;;4957276;29;20042;-81
2023/04/22 12:35:40;;;;;;;4.97;2.50;;;16.50;70.40;;;;;;4973065;28;20134;-81
2023/04/22 12:38:05;;;;;;;5.70;2.53;;;16.50;70.40;;;;;;4940599;29;20043;-82
2023/04/22 12:40:31;;;;;;;5.45;2.90;;;16.50;70.40;;;;;;4925504;29;20490;-80
2023/04/22 12:42:57;;;;;;;4.25;2.40;;;16.50;70.30;;;;;;4973309;28;20050;-80
2023/04/22 12:45:23;;;;;;;4.53;2.50;;;16.50;70.30;;;;;;4940780;29;20319;-83
2023/04/22 12:47:52;;;;;;;3.70;2.67;;;16.50;70.30;;;;;;4940452;29;20078;-82
2023/04/22 12:50:18;;;;;;;3.75;2.72;;;16.50;70.30;;;;;;4957732;29;20047;-81
2023/04/22 12:52:45;;;;;;;4.38;2.30;;;16.50;70.30;;;;;;4924574;29;20054;-80
2023/04/22 12:55:10;;;;;;;4.97;2.65;;;16.50;70.30;;;;;;4957613;29;20066;-82
2023/04/22 12:57:36;;;;;;;4.05;2.33;;;16.50;70.30;;;;;;4956859;29;20047;-81
2023/04/22 13:00:03;;;;;;;6.00;2.50;;;16.50;70.30;;;;;;4957062;29;20043;-82
2023/04/22 13:02:28;;;;;;;3.05;1.95;;;16.50;70.30;;;;;;4924563;29;20138;-81
2023/04/22 13:04:54;;;;;;;3.15;2.25;;;16.50;70.30;;;;;;4940709;29;20089;-83
2023/04/22 13:07:20;;;;;;;3.97;2.40;;;16.50;70.30;;;;;;4940346;29;20354;-81
2023/04/22 13:09:46;;;;;;;3.17;2.30;;;16.50;70.30;;;;;;4972786;28;20439;-82
2023/04/22 13:12:11;;;;;;;3.97;2.50;;;16.50;70.30;;;;;;4940944;29;20078;-81
2023/04/22 13:14:37;;;;;;;3.50;2.03;;;16.50;70.20;;;;;;4972140;28;20083;-81
2023/04/22 13:17:03;;;;;;;4.05;2.10;;;16.50;70.20;;;;;;4956142;29;20359;-81
2023/04/22 13:19:30;;;;;;;3.50;2.30;;;16.50;70.10;;;;;;4956894;29;20059;-82
2023/04/22 13:21:56;;;;;;;4.07;2.45;;;16.50;70.10;;;;;;4957233;29;20053;-83
2023/04/22 13:24:22;;;;;;;3.40;2.22;;;16.50;70.10;;;;;;4957308;29;20451;-84
2023/04/22 13:26:47;;;;;;;3.58;2.30;;;16.50;70.10;;;;;;4940875;29;20062;-82
2023/04/22 13:29:13;;;;;;;3.83;2.17;;;16.50;70.10;;;;;;4923150;29;20063;-81
2023/04/22 13:31:43;;;;;;;3.03;2.15;;;16.50;70.20;;;;;;4939900;29;20095;-81
2023/04/22 13:34:10;;;;;;;4.13;2.22;;;16.40;70.20;;;;;;4924500;29;20089;-83
2023/04/22 13:36:36;;;;;;;3.70;2.40;;;16.40;70.20;;;;;;4972137;28;20109;-82
2023/04/22 13:39:02;;;;;;;3.40;1.98;;;16.40;70.10;;;;;;4956675;29;20039;-84
2023/04/22 13:41:28;;;;;;;2.85;2.33;;;16.40;70.10;;;;;;4956557;29;20044;-81
2023/04/22 13:43:58;;;;;;;3.25;2.10;;;16.40;70.10;;;;;;4939894;29;20118;-84
2023/04/22 13:46:24;;;;;;;4.07;2.40;;;16.40;70.10;;;;;;4940105;29;20114;-82
2023/04/22 13:48:50;;;;;;;2.95;2.10;;;16.40;70.10;;;;;;4955902;29;20058;-81
2023/04/22 13:51:16;;;;;;;3.30;2.13;;;16.40;70.10;;;;;;4939785;29;20055;-82
2023/04/22 13:53:42;;;;;;;4.97;2.20;;;16.40;70.10;;;;;;4971710;28;20062;-81
2023/04/22 13:56:07;;;;;;;4.25;3.05;;;16.40;70.10;;;;;;4956533;29;20051;-83
2023/04/22 13:58:33;;;;;;;2.83;2.35;;;16.50;70.10;;;;;;4972068;28;20110;-82
2023/04/22 14:00:59;;;;;;;3.00;2.50;;;16.40;70.00;;;;;;4939722;29;20130;-83
2023/04/22 14:03:24;;;;;;;4.47;2.85;;;16.40;70.00;;;;;;4971857;28;20065;-83
2023/04/22 14:05:51;;;;;;;3.17;2.50;;;16.40;70.00;;;;;;4923767;29;20085;-81
2023/04/22 14:08:17;;;;;;;3.83;2.65;;;16.40;70.00;;;;;;4939403;29;20134;-84
2023/04/22 14:10:43;;;;;;;3.10;2.25;;;16.40;70.00;;;;;;4924191;29;20212;-83
2023/04/22 14:13:08;;;;;;;4.25;2.78;;;16.40;70.00;;;;;;4940046;29;20138;-82
2023/04/22 14:15:34;;;;;;;3.63;2.40;;;16.30;69.90;;;;;;4956380;29;20462;-83
2023/04/22 14:18:00;;;;;;;3.97;2.63;;;16.40;69.90;;;;;;4920265;29;20067;-82
2023/04/22 14:20:26;;;;;;;3.97;2.67;;;16.40;69.90;;;;;;4968480;28;20087;-83
2023/04/22 14:22:52;;;;;;;3.00;2.47;;;16.40;69.90;;;;;;4937308;29;20142;-81
2023/04/22 14:25:17;;;;;;;5.30;3.08;;;16.40;69.90;;;;;;4968106;28;20086;-83
2023/04/22 14:27:43;;;;;;;3.45;2.80;;;16.40;69.90;;;;;;4939273;29;20114;-83
2023/04/22 14:30:09;;;;;;;3.08;2.58;;;16.40;69.80;;;;;;4939723;29;20375;-83
2023/04/22 14:32:35;;;;;;;2.90;2.50;;;16.40;69.80;;;;;;4923822;29;20459;-83
2023/04/22 14:35:01;;;;;;;3.45;2.42;;;16.30;69.70;;;;;;4939678;29;20047;-85
2023/04/22 14:37:27;;;;;;;3.55;2.53;;;16.30;69.70;;;;;;4939270;29;20056;-82
2023/04/22 14:39:53;;;;;;;3.42;2.67;;;16.40;69.70;;;;;;4924604;29;20457;-83
2023/04/22 14:42:19;;;;;;;3.65;2.95;;;16.40;69.70;;;;;;4955673;29;20363;-84
2023/04/22 14:44:45;;;;;;;2.58;2.35;;;16.40;69.70;;;;;;4971452;28;20051;-84
2023/04/22 14:47:10;;;;;;;3.03;2.75;;;16.30;69.60;;;;;;4940393;29;20044;-84
2023/04/22 14:49:36;;;;;;;4.30;2.65;;;16.30;69.70;;;;;;4940697;29;20066;-83
2023/04/22 14:52:02;;;;;;;3.20;2.90;;;16.30;69.60;;;;;;4939806;29;20058;-83
2023/04/22 14:54:27;;;;;;;3.47;2.80;;;16.30;69.70;;;;;;4971171;28;20047;-83
2023/04/22 14:56:54;;;;;;;3.20;2.80;;;16.30;69.60;;;;;;4939294;29;20044;-82
2023/04/22 14:59:21;;;;;;;4.53;3.25;;;16.30;69.70;;;;;;4940130;29;20094;-85
2023/04/22 15:01:47;;;;;;;3.38;2.78;;;16.30;69.70;;;;;;4971564;28;20043;-83
2023/04/22 15:04:13;;;;;;;4.82;3.22;;;16.30;69.70;;;;;;4971292;28;20118;-84
2023/04/22 15:06:40;;;;;;;4.85;3.33;;;16.30;69.70;;;;;;4971372;28;20091;-85
2023/04/22 15:09:05;;;;;;;4.75;3.22;;;16.30;69.70;;;;;;4955195;29;20118;-84
2023/04/22 15:11:31;;;;;;;4.70;3.72;;;16.30;69.60;;;;;;4939820;29;20048;-83
2023/04/22 15:13:57;;;;;;;3.80;3.35;;;16.30;69.60;;;;;;4939747;29;20054;-83
2023/04/22 15:16:26;;;;;;;4.15;3.70;;;16.30;69.50;;;;;;4958405;29;20154;-84
2023/04/22 15:18:52;;;;;;;4.45;3.33;;;16.30;69.50;;;;;;4942660;29;20407;-83
2023/04/22 15:21:18;;;;;;;4.40;3.58;;;16.30;69.50;;;;;;4942939;29;20052;-83
2023/04/22 15:23:43;;;;;;;4.03;3.42;;;16.30;69.50;;;;;;4958470;29;20466;-76
2023/04/22 15:26:09;;;;;;;10.15;3.65;;;16.30;69.50;;;;;;4959314;29;20055;-84
2023/04/22 15:28:35;;;;;;;13.77;4.55;;;16.30;69.70;;;;;;4922973;29;20062;-82
2023/04/22 15:31:06;;;;;;;12.75;4.28;;;16.40;70.10;;;;;;4924417;29;20051;-81
2023/04/22 15:33:32;;;;;;;9.15;3.95;;;16.30;70.30;;;;;;4958565;29;20370;-83
2023/04/22 15:36:02;;;;;;;13.20;4.18;;;16.30;70.50;;;;;;4942264;29;20043;-78
2023/04/22 15:38:28;;;;;;;15.00;4.18;;;16.30;70.70;;;;;;4958023;28;20066;-80
2023/04/22 15:40:54;;;;;;;8.80;4.32;;;16.40;70.80;;;;;;4941380;29;20050;-78
2023/04/22 15:43:19;;;;;;;14.15;3.90;;;16.40;70.90;;;;;;4958110;29;20123;-77
2023/04/22 15:45:45;;;;;;;12.25;3.97;;;16.40;71.00;;;;;;4958230;29;20043;-80
2023/04/22 15:48:12;;;;;;;17.63;5.05;;;16.50;71.30;;;;;;4926485;29;20063;-77
2023/04/22 15:50:39;;;;;;;18.05;5.78;;;16.50;71.70;;;;;;4952287;29;20062;-74
2023/04/22 15:53:08;;;;;;;23.42;7.03;;;16.50;71.90;;;;;;4937804;29;20048;-75
2023/04/22 15:55:35;;;;;;;21.77;6.38;;;16.60;72.40;;;;;;4957915;29;20051;-71
2023/04/22 15:58:01;;;;;;;17.42;6.32;;;16.60;72.70;;;;;;4959079;29;20106;-76
2023/04/22 16:00:27;;;;;;;24.27;6.05;;;16.60;74.10;;;;;;4942169;29;20130;-79
2023/04/22 16:02:55;;;;;;;25.30;7.07;;;16.70;75.30;;;;;;4958146;29;20040;-80
2023/04/22 16:05:23;;;;;;;13.15;5.43;;;16.70;76.60;;;;;;4941166;29;20049;-78
2023/04/22 16:07:50;;;;;;;17.63;4.80;;;16.70;77.00;;;;;;4941230;29;20055;-79
2023/04/22 16:10:16;;;;;;;15.13;4.65;;;16.80;77.10;;;;;;4925734;29;20058;-80
2023/04/22 16:12:42;;;;;;;16.70;4.57;;;16.80;76.60;;;;;;4958116;29;20048;-78
2023/04/22 16:15:09;;;;;;;17.83;4.35;;;16.80;76.70;;;;;;4957900;29;20129;-80
2023/04/22 16:17:36;;;;;;;16.20;4.25;;;16.80;76.60;;;;;;4957018;28;20064;-82
2023/04/22 16:20:04;;;;;;;19.40;4.40;;;16.80;76.60;;;;;;4919082;29;20088;-78
2023/04/22 16:22:30;;;;;;;20.02;4.68;;;16.80;76.60;;;;;;4903388;29;20127;-81
2023/04/22 16:24:56;;;;;;;26.90;5.55;;;16.80;76.30;;;;;;4950446;29;20044;-80
2023/04/22 16:27:22;;;;;;;28.08;5.18;;;16.80;76.30;;;;;;4919145;29;20044;-79
2023/04/22 16:29:47;;;;;;;19.38;4.43;;;16.80;76.20;;;;;;4919751;29;20420;-79
2023/04/22 16:32:13;;;;;;;17.02;3.85;;;16.80;76.20;;;;;;4935260;29;20131;-80
2023/04/22 16:34:39;;;;;;;22.08;5.07;;;16.80;75.90;;;;;;4918121;29;20367;-81
2023/04/22 16:37:05;;;;;;;21.92;5.55;;;16.80;75.90;;;;;;4951149;29;20059;-79
2023/04/22 16:39:31;;;;;;;29.48;5.57;;;16.80;75.90;;;;;;4919887;29;20434;-79
2023/04/22 16:41:57;;;;;;;38.97;6.88;;;16.80;75.80;;;;;;4918467;29;20169;-80
2023/04/22 16:44:23;;;;;;;44.80;8.43;;;16.80;75.70;;;;;;4902651;29;20047;-79
2023/04/22 16:46:51;;;;;;;32.22;6.88;;;16.80;75.60;;;;;;4915645;29;20040;-75
2023/04/22 16:49:18;;;;;;;35.40;6.75;;;16.80;75.60;;;;;;4919175;29;20043;-76
2023/04/22 16:51:43;;;;;;;33.72;7.63;;;16.80;75.70;;;;;;4919064;29;20048;-76
2023/04/22 16:54:09;;;;;;;40.03;7.30;;;16.80;75.60;;;;;;4917791;29;20409;-76
2023/04/22 16:56:36;;;;;;;37.85;7.38;;;16.80;75.60;;;;;;4918432;29;20087;-76
2023/04/22 16:59:02;;;;;;;36.20;6.13;;;16.80;75.50;;;;;;4919262;29;20051;-77
2023/04/22 17:01:28;;;;;;;26.23;5.55;;;16.80;75.40;;;;;;4919006;29;20054;-74
2023/04/22 17:03:55;;;;;;;27.20;6.30;;;16.80;75.50;;;;;;4919613;29;20325;-77
2023/04/22 17:06:21;;;;;;;29.65;9.88;;;16.80;75.50;;;;;;4919093;29;20059;-78
2023/04/22 17:08:47;;;;;;;28.13;9.13;;;16.80;74.20;;;;;;4919154;29;20114;-78
2023/04/22 17:11:12;;;;;;;31.55;9.10;;;16.80;73.30;;;;;;4919280;29;20169;-78
2023/04/22 17:13:39;;;;;;;25.17;8.90;;;16.80;73.00;;;;;;4949813;29;20074;-78
2023/04/22 17:16:07;;;;;;;17.05;8.38;;;16.80;72.90;;;;;;4919858;29;20048;-77
2023/04/22 17:18:33;;;;;;;16.98;7.68;;;16.80;72.80;;;;;;4971227;28;20055;-78
2023/04/22 17:20:59;;;;;;;16.10;7.57;;;16.80;72.80;;;;;;4957185;29;20106;-79
2023/04/22 17:23:25;;;;;;;19.30;7.30;;;16.80;72.70;;;;;;4957120;29;20639;-77
2023/04/22 17:25:51;;;;;;;20.45;7.20;;;16.80;72.50;;;;;;4957188;29;20047;-76
2023/04/22 17:28:20;;;;;;;20.27;7.78;;;16.80;72.30;;;;;;4957187;29;20073;-77
2023/04/22 17:30:45;;;;;;;18.73;7.05;;;16.70;72.00;;;;;;4956803;29;20354;-78
2023/04/22 17:33:11;;;;;;;15.05;7.07;;;16.70;72.00;;;;;;4956535;29;20040;-76
2023/04/22 17:35:37;;;;;;;15.82;6.28;;;16.70;71.80;;;;;;4956910;29;20109;-78
2023/04/22 17:38:02;;;;;;;18.88;7.03;;;16.70;71.60;;;;;;4940509;29;20126;-78
2023/04/22 17:40:28;;;;;;;16.67;6.15;;;16.70;71.50;;;;;;4957157;29;20458;-78
2023/04/22 17:42:54;;;;;;;12.13;5.95;;;16.70;71.40;;;;;;4956780;29;20099;-79
2023/04/22 17:45:20;;;;;;;18.83;5.60;;;16.70;71.30;;;;;;4956928;29;20062;-77
2023/04/22 17:47:47;;;;;;;17.40;5.82;;;16.70;71.20;;;;;;4956826;29;20047;-78
2023/04/22 17:50:13;;;;;;;12.57;5.85;;;16.70;71.10;;;;;;4956890;29;20077;-78
2023/04/22 17:52:39;;;;;;;14.65;5.80;;;16.70;71.10;;;;;;4957002;29;20159;-77
2023/04/22 17:55:06;;;;;;;9.10;5.43;;;16.70;71.10;;;;;;4956492;29;20366;-77
2023/04/22 17:57:31;;;;;;;14.00;6.00;;;16.70;71.10;;;;;;4956678;29;20522;-77
2023/04/22 17:59:57;;;;;;;13.52;5.40;;;16.60;71.00;;;;;;4956675;29;20048;-78
2023/04/22 18:02:24;;;;;;;12.43;5.88;;;16.60;70.90;;;;;;4958481;28;20047;-76
2023/04/22 18:04:49;;;;;;;11.35;5.28;;;16.60;70.80;;;;;;4975924;28;20055;-77
2023/04/22 18:07:15;;;;;;;10.90;5.47;;;16.60;70.80;;;;;;4943430;29;20055;-77
2023/04/22 18:09:41;;;;;;;10.35;5.45;;;16.60;71.40;;;;;;4961080;29;20051;-78
2023/04/22 18:12:07;;;;;;;11.00;5.07;;;16.60;70.80;;;;;;4960459;28;20346;-78
2023/04/22 18:14:33;;;;;;;12.07;5.97;;;16.60;70.70;;;;;;4959897;29;20058;-77
2023/04/22 18:16:58;;;;;;;9.00;4.80;;;16.60;70.70;;;;;;4960105;29;20058;-76
2023/04/22 18:19:24;;;;;;;12.35;9.90;;;16.60;70.70;;;;;;4953713;29;20095;-77
2023/04/22 18:21:50;;;;;;;17.65;11.80;;;16.60;69.60;;;;;;4943034;29;20051;-74
2023/04/22 18:24:16;;;;;;;15.02;13.15;;;16.50;67.60;;;;;;4959190;29;20058;-74
2023/04/22 18:26:44;;;;;;;14.85;12.43;;;16.40;67.20;;;;;;4959869;29;20043;-74